createdAt,value
2023-01-08T00:01:13.113Z,55.28
2023-01-08T00:03:40.360Z,55.37
2023-01-08T00:06:11.821Z,55.43
2023-01-08T00:08:38.444Z,55.41
2023-01-08T00:11:05.390Z,55.45
2023-01-08T00:13:32.208Z,55.66
2023-01-08T00:16:06.597Z,55.46
2023-01-08T00:18:33.956Z,55.52
2023-01-08T00:21:01.081Z,55.71
2023-01-08T00:23:28.038Z,55.49
2023-01-08T00:25:54.734Z,55.78
2023-01-08T00:28:21.487Z,55.58
2023-01-08T00:30:48.874Z,55.93
2023-01-08T00:33:16.824Z,55.71
2023-01-08T00:35:43.465Z,55.94
2023-01-08T00:38:10.119Z,55.71
2023-01-08T00:40:37.088Z,55.90
2023-01-08T00:43:04.481Z,55.88
2023-01-08T00:45:31.513Z,55.96
2023-01-08T00:47:58.486Z,55.90
2023-01-08T00:50:25.623Z,56.06
2023-01-08T00:52:52.670Z,55.92
2023-01-08T00:55:19.463Z,56.05
2023-01-08T00:57:46.107Z,55.81
2023-01-08T01:00:15.379Z,55.79
2023-01-08T01:02:42.233Z,55.94
2023-01-08T01:05:09.945Z,55.77
2023-01-08T01:07:37.422Z,55.56
2023-01-08T01:10:04.858Z,55.62
2023-01-08T01:12:31.710Z,55.63
2023-01-08T01:14:58.360Z,56.08
2023-01-08T01:17:25.355Z,55.96
2023-01-08T01:19:52.113Z,55.91
2023-01-08T01:22:18.882Z,55.79
2023-01-08T01:24:45.727Z,55.88
2023-01-08T01:27:12.407Z,55.64
2023-01-08T01:29:39.170Z,55.64
2023-01-08T01:32:06.260Z,55.79
2023-01-08T01:34:33.066Z,55.58
2023-01-08T01:36:59.675Z,55.61
2023-01-08T01:39:26.630Z,55.61
2023-01-08T01:41:53.420Z,55.51
2023-01-08T01:44:43.434Z,55.70
2023-01-08T01:47:20.827Z,55.69
2023-01-08T01:49:59.386Z,55.77
2023-01-08T01:52:29.509Z,55.72
2023-01-08T01:54:59.885Z,55.58
2023-01-08T01:57:26.914Z,55.46
2023-01-08T01:59:55.386Z,55.78
2023-01-08T02:02:23.178Z,55.73
2023-01-08T02:04:50.428Z,55.74
2023-01-08T02:07:27.167Z,55.82
2023-01-08T02:10:00.567Z,55.93
2023-01-08T02:12:39.093Z,55.73
2023-01-08T02:15:18.308Z,55.80
2023-01-08T02:17:58.116Z,55.63
2023-01-08T02:20:39.549Z,55.58
2023-01-08T02:23:26.441Z,55.52
2023-01-08T02:26:22.127Z,55.65
2023-01-08T02:29:04.138Z,55.71
2023-01-08T02:31:33.382Z,55.47
2023-01-08T02:34:00.571Z,55.80
2023-01-08T02:36:38.226Z,55.99
2023-01-08T02:39:04.897Z,55.62
2023-01-08T02:42:06.813Z,55.83
2023-01-08T02:44:59.597Z,55.74
2023-01-08T02:47:32.058Z,55.62
2023-01-08T02:50:16.656Z,55.64
2023-01-08T02:52:56.101Z,55.72
2023-01-08T02:55:24.892Z,55.79
2023-01-08T02:57:52.900Z,55.92
2023-01-08T03:00:21.142Z,55.72
2023-01-08T03:02:51.307Z,55.71
2023-01-08T03:05:27.289Z,55.75
2023-01-08T03:07:55.682Z,55.77
2023-01-08T03:10:26.306Z,56.22
2023-01-08T03:12:58.636Z,56.03
2023-01-08T03:15:34.712Z,55.70
2023-01-08T03:18:07.245Z,55.83
2023-01-08T03:20:37.334Z,55.69
2023-01-08T03:23:08.398Z,56.00
2023-01-08T03:25:39.903Z,55.71
2023-01-08T03:28:13.539Z,55.53
2023-01-08T03:30:42.353Z,55.45
2023-01-08T03:33:12.200Z,55.78
2023-01-08T03:35:42.232Z,56.09
2023-01-08T03:38:17.435Z,55.86
2023-01-08T03:40:49.394Z,55.72
2023-01-08T03:43:16.166Z,56.02
2023-01-08T03:45:49.157Z,55.73
2023-01-08T03:48:18.800Z,55.67
2023-01-08T03:50:45.674Z,55.89
2023-01-08T03:53:12.519Z,55.67
2023-01-08T03:55:39.386Z,56.18
2023-01-08T03:58:06.266Z,56.11
2023-01-08T04:00:32.917Z,55.74
2023-01-08T04:02:59.670Z,55.67
2023-01-08T04:05:26.367Z,55.92
2023-01-08T04:07:56.277Z,55.67
2023-01-08T04:10:24.374Z,56.04
2023-01-08T04:12:51.175Z,55.95
2023-01-08T04:15:17.932Z,55.74
2023-01-08T04:17:44.581Z,55.68
2023-01-08T04:20:11.573Z,55.68
2023-01-08T04:22:38.207Z,55.93
2023-01-08T04:25:05.617Z,55.74
2023-01-08T04:27:32.347Z,55.99
2023-01-08T04:29:59.011Z,55.90
2023-01-08T04:32:25.958Z,55.99
2023-01-08T04:34:52.651Z,56.03
2023-01-08T04:37:19.465Z,55.63
2023-01-08T04:39:46.169Z,55.84
2023-01-08T04:42:12.852Z,56.01
2023-01-08T04:44:39.616Z,56.02
2023-01-08T04:47:06.225Z,56.10
2023-01-08T04:49:32.871Z,55.97
2023-01-08T04:51:59.551Z,56.20
2023-01-08T04:54:26.363Z,56.35
2023-01-08T04:56:53.107Z,56.00
2023-01-08T04:59:19.989Z,56.02
2023-01-08T05:01:47.027Z,56.02
2023-01-08T05:04:13.936Z,55.97
2023-01-08T05:06:40.803Z,55.71
2023-01-08T05:09:07.697Z,56.28
2023-01-08T05:11:35.563Z,55.96
2023-01-08T05:14:02.269Z,56.19
2023-01-08T05:16:29.006Z,56.00
2023-01-08T05:18:55.655Z,56.26
2023-01-08T05:21:22.371Z,55.81
2023-01-08T05:23:48.991Z,56.13
2023-01-08T05:26:17.142Z,56.33
2023-01-08T05:28:44.025Z,56.37
2023-01-08T05:31:11.897Z,56.67
2023-01-08T05:33:39.063Z,56.25
2023-01-08T05:36:07.800Z,56.48
2023-01-08T05:38:34.762Z,56.68
2023-01-08T05:41:01.563Z,56.33
2023-01-08T05:43:29.805Z,56.32
2023-01-08T05:46:00.200Z,56.73
2023-01-08T05:48:27.827Z,56.46
2023-01-08T05:50:54.612Z,56.62
2023-01-08T05:53:21.708Z,56.49
2023-01-08T05:55:48.688Z,56.87
2023-01-08T05:58:18.964Z,56.53
2023-01-08T06:00:46.395Z,56.72
2023-01-08T06:03:13.240Z,56.76
2023-01-08T06:05:40.153Z,56.76
2023-01-08T06:08:08.633Z,56.75
2023-01-08T06:10:37.940Z,56.92
2023-01-08T06:13:09.733Z,56.50
2023-01-08T06:15:40.125Z,56.41
2023-01-08T06:18:07.462Z,56.50
2023-01-08T06:20:34.288Z,56.55
2023-01-08T06:23:01.145Z,56.78
2023-01-08T06:25:29.648Z,56.89
2023-01-08T06:27:56.381Z,56.66
2023-01-08T06:30:23.185Z,56.59
2023-01-08T06:32:49.988Z,56.52
2023-01-08T06:35:16.977Z,57.03
2023-01-08T06:37:43.811Z,56.95
2023-01-08T06:40:11.015Z,56.75
2023-01-08T06:42:37.809Z,57.42
2023-01-08T06:45:05.178Z,57.35
2023-01-08T06:47:32.862Z,56.87
2023-01-08T06:49:59.617Z,56.82
2023-01-08T06:52:26.368Z,56.95
2023-01-08T06:54:53.173Z,57.20
2023-01-08T06:57:20.228Z,56.75
2023-01-08T06:59:46.840Z,56.86
2023-01-08T07:02:14.946Z,57.16
2023-01-08T07:04:42.131Z,57.01
2023-01-08T07:07:09.610Z,56.95
2023-01-08T07:09:36.323Z,56.87
2023-01-08T07:12:03.076Z,56.73
2023-01-08T07:14:29.641Z,57.10
2023-01-08T07:16:56.394Z,57.01
2023-01-08T07:19:23.004Z,57.11
2023-01-08T07:21:49.684Z,57.17
2023-01-08T07:24:16.353Z,57.30
2023-01-08T07:26:42.978Z,57.52
2023-01-08T07:29:09.541Z,57.15
2023-01-08T07:31:36.234Z,57.21
2023-01-08T07:34:02.993Z,57.29
2023-01-08T07:36:29.678Z,57.55
2023-01-08T07:38:56.388Z,57.47
2023-01-08T07:41:23.100Z,57.55
2023-01-08T07:43:50.595Z,57.46
2023-01-08T07:46:17.307Z,57.39
2023-01-08T07:48:44.224Z,57.44
2023-01-08T07:51:11.092Z,57.50
2023-01-08T07:53:38.164Z,57.65
2023-01-08T07:56:10.537Z,57.52
2023-01-08T07:58:37.321Z,57.53
2023-01-08T08:01:06.596Z,57.57
2023-01-08T08:03:33.254Z,57.52
2023-01-08T08:06:01.360Z,57.76
2023-01-08T08:08:28.124Z,57.75
2023-01-08T08:10:54.843Z,57.53
2023-01-08T08:13:21.698Z,57.87
2023-01-08T08:15:48.345Z,57.87
2023-01-08T08:18:15.072Z,58.29
2023-01-08T08:20:41.687Z,58.13
2023-01-08T08:23:10.898Z,58.47
2023-01-08T08:25:37.886Z,58.71
2023-01-08T08:28:05.157Z,58.49
2023-01-08T08:30:33.822Z,58.20
2023-01-08T08:33:03.195Z,57.92
2023-01-08T08:35:31.177Z,57.96
2023-01-08T08:37:58.120Z,58.05
2023-01-08T08:40:25.336Z,58.08
2023-01-08T08:42:59.536Z,58.07
2023-01-08T08:45:27.339Z,57.88
2023-01-08T08:47:54.528Z,57.97
2023-01-08T08:50:22.366Z,57.87
2023-01-08T08:52:49.194Z,57.76
2023-01-08T08:55:17.429Z,57.71
2023-01-08T08:57:45.769Z,57.64
2023-01-08T09:00:13.714Z,57.55
2023-01-08T09:02:40.856Z,57.60
2023-01-08T09:05:07.971Z,57.65
2023-01-08T09:07:34.763Z,57.66
2023-01-08T09:10:01.746Z,57.64
2023-01-08T09:12:28.512Z,57.51
2023-01-08T09:14:57.115Z,57.17
2023-01-08T09:17:25.561Z,57.00
2023-01-08T09:19:52.292Z,57.12
2023-01-08T09:22:19.356Z,57.21
2023-01-08T09:24:46.169Z,57.12
2023-01-08T09:27:13.473Z,56.96
2023-01-08T09:29:40.179Z,56.67
2023-01-08T09:32:07.889Z,56.57
2023-01-08T09:34:36.327Z,56.22
2023-01-08T09:37:03.852Z,55.85
2023-01-08T09:39:31.050Z,55.50
2023-01-08T09:41:59.196Z,55.26
2023-01-08T09:44:34.037Z,55.22
2023-01-08T09:47:01.677Z,55.05
2023-01-08T09:49:40.540Z,54.83
2023-01-08T09:52:11.713Z,54.88
2023-01-08T09:54:39.851Z,54.88
2023-01-08T09:57:10.189Z,54.56
2023-01-08T09:59:37.031Z,54.50
2023-01-08T10:02:04.667Z,54.46
2023-01-08T10:04:33.264Z,54.36
2023-01-08T10:07:11.577Z,54.34
2023-01-08T10:09:39.938Z,54.25
2023-01-08T10:12:07.761Z,54.04
2023-01-08T10:14:37.986Z,54.11
2023-01-08T10:17:45.599Z,54.26
2023-01-08T10:20:20.810Z,54.17
2023-01-08T10:22:48.902Z,54.12
2023-01-08T10:25:17.288Z,53.82
2023-01-08T10:27:49.868Z,53.78
2023-01-08T10:30:20.477Z,53.75
2023-01-08T10:32:53.545Z,53.88
2023-01-08T10:35:24.503Z,53.85
2023-01-08T10:37:51.185Z,53.65
2023-01-08T10:40:31.153Z,53.45
2023-01-08T10:43:12.460Z,53.81
2023-01-08T10:45:40.711Z,53.43
2023-01-08T10:48:13.677Z,53.67
2023-01-08T10:50:40.511Z,53.58
2023-01-08T10:53:24.887Z,53.40
2023-01-08T10:56:03.685Z,53.40
2023-01-08T10:58:40.379Z,53.18
2023-01-08T11:01:29.942Z,53.32
2023-01-08T11:04:03.239Z,53.38
2023-01-08T11:06:47.118Z,53.08
2023-01-08T11:09:22.839Z,52.84
2023-01-08T11:11:50.044Z,52.84
2023-01-08T11:14:22.493Z,52.83
2023-01-08T11:16:49.752Z,52.98
2023-01-08T11:19:19.460Z,53.08
2023-01-08T11:21:56.208Z,52.82
2023-01-08T11:24:27.400Z,52.88
2023-01-08T11:27:30.050Z,52.52
2023-01-08T11:30:08.019Z,52.58
2023-01-08T11:32:43.866Z,52.59
2023-01-08T11:35:28.534Z,52.77
2023-01-08T11:37:59.454Z,52.61
2023-01-08T11:40:44.403Z,52.43
2023-01-08T11:43:38.792Z,52.19
2023-01-08T11:46:42.853Z,52.39
2023-01-08T11:49:21.512Z,52.48
2023-01-08T11:52:09.769Z,52.36
2023-01-08T11:55:13.780Z,52.40
2023-01-08T11:57:46.481Z,52.06
2023-01-08T12:00:27.253Z,52.52
2023-01-08T12:03:00.258Z,52.27
2023-01-08T12:05:41.755Z,52.36
2023-01-08T12:08:21.380Z,52.17
2023-01-08T12:11:06.332Z,52.26
2023-01-08T12:13:42.058Z,52.20
2023-01-08T12:16:37.171Z,52.33
2023-01-08T12:19:28.357Z,52.15
2023-01-08T12:22:09.964Z,52.40
2023-01-08T12:25:10.859Z,52.53
2023-01-08T12:28:11.850Z,51.90
2023-01-08T12:31:00.707Z,52.33
2023-01-08T12:33:54.468Z,52.40
2023-01-08T12:36:26.482Z,52.33
2023-01-08T12:39:01.566Z,52.43
2023-01-08T12:41:31.790Z,52.06
2023-01-08T12:44:03.089Z,52.28
2023-01-08T12:46:34.559Z,52.24
2023-01-08T12:49:04.381Z,52.48
2023-01-08T12:51:49.601Z,52.20
2023-01-08T12:54:24.125Z,52.63
2023-01-08T12:57:07.145Z,51.88
2023-01-08T12:59:46.494Z,52.25
2023-01-08T13:02:32.180Z,52.44
2023-01-08T13:04:58.987Z,52.41
2023-01-08T13:07:28.054Z,52.43
2023-01-08T13:10:05.265Z,52.18
2023-01-08T13:12:37.690Z,52.53
2023-01-08T13:15:05.714Z,52.87
2023-01-08T13:17:32.738Z,52.76
2023-01-08T13:20:06.244Z,52.31
2023-01-08T13:22:37.326Z,52.57
2023-01-08T13:25:17.121Z,52.50
2023-01-08T13:27:45.756Z,52.52
2023-01-08T13:30:43.446Z,52.81
2023-01-08T13:33:26.963Z,52.51
2023-01-08T13:36:13.560Z,52.78
2023-01-08T13:38:41.278Z,53.15
2023-01-08T13:41:27.401Z,53.01
2023-01-08T13:44:02.552Z,52.84
2023-01-08T13:46:30.066Z,52.57
2023-01-08T13:49:02.680Z,52.93
2023-01-08T13:51:38.244Z,52.43
2023-01-08T13:54:14.029Z,52.33
2023-01-08T13:56:42.993Z,52.45
2023-01-08T13:59:33.783Z,52.69
2023-01-08T14:02:01.454Z,52.65
2023-01-08T14:04:28.420Z,52.85
2023-01-08T14:07:14.524Z,52.73
2023-01-08T14:09:41.366Z,52.74
2023-01-08T14:12:14.433Z,52.33
2023-01-08T14:14:47.771Z,52.67
2023-01-08T14:17:18.264Z,52.52
2023-01-08T14:19:45.447Z,52.51
2023-01-08T14:22:19.214Z,52.93
2023-01-08T14:24:52.684Z,52.59
2023-01-08T14:27:28.395Z,52.42
2023-01-08T14:29:56.015Z,52.56
2023-01-08T14:32:25.541Z,52.47
2023-01-08T14:34:54.386Z,52.67
2023-01-08T14:37:21.252Z,52.58
2023-01-08T14:39:54.353Z,52.79
2023-01-08T14:42:42.346Z,52.55
2023-01-08T14:45:16.017Z,52.80
2023-01-08T14:47:49.295Z,52.66
2023-01-08T14:50:24.190Z,52.57
2023-01-08T14:52:52.938Z,52.60
2023-01-08T14:55:21.086Z,52.45
2023-01-08T14:57:51.652Z,52.33
2023-01-08T15:00:25.199Z,52.14
2023-01-08T15:02:52.140Z,52.55
2023-01-08T15:05:24.663Z,52.22
2023-01-08T15:08:24.075Z,52.62
2023-01-08T15:10:59.702Z,52.31
2023-01-08T15:13:32.517Z,52.33
2023-01-08T15:16:08.989Z,52.46
2023-01-08T15:18:45.431Z,52.59
2023-01-08T15:21:18.289Z,52.85
2023-01-08T15:23:48.884Z,52.70
2023-01-08T15:26:16.624Z,52.47
2023-01-08T15:28:58.269Z,52.87
2023-01-08T15:31:30.550Z,52.60
2023-01-08T15:33:58.929Z,52.73
2023-01-08T15:36:26.371Z,53.01
2023-01-08T15:38:53.391Z,53.06
2023-01-08T15:41:40.606Z,52.92
2023-01-08T15:44:14.490Z,52.83
2023-01-08T15:46:41.079Z,52.94
2023-01-08T15:49:07.683Z,52.77
2023-01-08T15:51:37.307Z,52.75
2023-01-08T15:54:04.132Z,52.67
2023-01-08T15:56:30.758Z,52.34
2023-01-08T15:58:57.576Z,52.13
2023-01-08T16:01:27.740Z,52.24
2023-01-08T16:03:54.438Z,52.61
2023-01-08T16:06:21.147Z,52.21
2023-01-08T16:09:12.792Z,52.16
2023-01-08T16:11:39.595Z,52.04
2023-01-08T16:14:06.154Z,52.56
2023-01-08T16:16:33.015Z,52.18
2023-01-08T16:19:00.008Z,52.47
2023-01-08T16:21:26.723Z,52.49
2023-01-08T16:23:53.299Z,52.21
2023-01-08T16:26:44.864Z,52.66
2023-01-08T16:29:11.496Z,52.22
2023-01-08T16:31:38.593Z,52.69
2023-01-08T16:34:05.288Z,52.82
2023-01-08T16:36:31.853Z,52.30
2023-01-08T16:38:58.512Z,52.39
2023-01-08T16:41:25.110Z,52.52
2023-01-08T16:44:04.632Z,52.28
2023-01-08T16:46:32.421Z,52.35
2023-01-08T16:48:59.394Z,52.50
2023-01-08T16:51:27.819Z,52.45
2023-01-08T16:53:54.639Z,52.11
2023-01-08T16:56:21.236Z,52.50
2023-01-08T16:58:50.538Z,52.37
2023-01-08T17:01:17.495Z,52.25
2023-01-08T17:03:44.196Z,52.42
2023-01-08T17:06:13.270Z,52.51
2023-01-08T17:08:41.655Z,52.44
2023-01-08T17:11:10.679Z,52.20
2023-01-08T17:13:37.851Z,52.28
2023-01-08T17:16:06.819Z,52.06
2023-01-08T17:18:34.101Z,52.25
2023-01-08T17:21:00.986Z,52.45
2023-01-08T17:23:28.867Z,52.02
2023-01-08T17:25:56.755Z,52.01
2023-01-08T17:28:28.422Z,52.40
2023-01-08T17:31:02.340Z,51.99
2023-01-08T17:33:28.997Z,52.20
2023-01-08T17:35:55.744Z,52.25
2023-01-08T17:38:22.377Z,52.15
2023-01-08T17:40:49.078Z,52.70
2023-01-08T17:43:15.773Z,53.02
2023-01-08T17:45:42.560Z,52.68
2023-01-08T17:48:09.394Z,52.99
2023-01-08T17:50:39.251Z,52.92
2023-01-08T17:53:05.817Z,52.74
2023-01-08T17:55:32.545Z,53.08
2023-01-08T17:57:59.202Z,52.41
2023-01-08T18:00:26.249Z,52.42
2023-01-08T18:02:53.035Z,52.29
2023-01-08T18:05:19.878Z,52.37
2023-01-08T18:07:46.865Z,52.63
2023-01-08T18:10:13.718Z,52.13
2023-01-08T18:12:40.535Z,52.03
2023-01-08T18:15:08.564Z,52.21
2023-01-08T18:17:35.399Z,52.01
2023-01-08T18:20:02.233Z,52.48
2023-01-08T18:22:29.084Z,52.33
2023-01-08T18:24:55.893Z,52.40
2023-01-08T18:27:22.731Z,52.61
2023-01-08T18:29:49.413Z,52.67
2023-01-08T18:32:17.305Z,52.64
2023-01-08T18:34:44.093Z,52.21
2023-01-08T18:37:10.901Z,52.65
2023-01-08T18:39:37.867Z,52.71
2023-01-08T18:42:23.140Z,52.35
2023-01-08T18:44:52.555Z,51.97
2023-01-08T18:47:20.611Z,52.27
2023-01-08T18:49:47.452Z,52.53
2023-01-08T18:52:15.072Z,52.72
2023-01-08T18:54:41.690Z,52.33
2023-01-08T18:57:08.239Z,52.44
2023-01-08T18:59:34.882Z,52.42
2023-01-08T19:02:01.795Z,52.33
2023-01-08T19:04:28.974Z,52.30
2023-01-08T19:06:55.759Z,52.03
2023-01-08T19:09:22.454Z,51.94
2023-01-08T19:11:49.116Z,51.90
2023-01-08T19:14:15.769Z,51.92
2023-01-08T19:16:48.295Z,52.05
2023-01-08T19:19:15.047Z,52.02
2023-01-08T19:21:41.659Z,51.80
2023-01-08T19:24:08.504Z,52.29
2023-01-08T19:26:35.636Z,52.35
2023-01-08T19:29:04.818Z,52.28
2023-01-08T19:31:32.241Z,51.94
2023-01-08T19:34:00.196Z,52.21
2023-01-08T19:36:27.601Z,51.89
2023-01-08T19:38:54.654Z,52.29
2023-01-08T19:41:57.323Z,51.90
2023-01-08T19:44:24.078Z,52.07
2023-01-08T19:46:50.777Z,52.14
2023-01-08T19:49:17.511Z,51.91
2023-01-08T19:51:44.193Z,51.87
2023-01-08T19:54:12.624Z,51.86
2023-01-08T19:56:39.520Z,51.99
2023-01-08T19:59:06.132Z,52.12
2023-01-08T20:01:33.740Z,51.86
2023-01-08T20:04:00.614Z,51.82
2023-01-08T20:06:28.123Z,52.13
2023-01-08T20:08:58.748Z,52.08
2023-01-08T20:11:26.239Z,51.76
2023-01-08T20:14:00.264Z,52.16
2023-01-08T20:16:29.004Z,52.23
2023-01-08T20:18:57.997Z,52.00
2023-01-08T20:21:25.292Z,52.14
2023-01-08T20:24:02.153Z,52.22
2023-01-08T20:26:31.072Z,52.02
2023-01-08T20:28:58.870Z,51.97
2023-01-08T20:31:29.460Z,52.03
2023-01-08T20:34:00.597Z,52.47
2023-01-08T20:36:29.737Z,52.51
2023-01-08T20:39:02.700Z,52.34
2023-01-08T20:41:29.934Z,52.70
2023-01-08T20:43:56.614Z,52.42
2023-01-08T20:46:28.519Z,52.83
2023-01-08T20:48:56.935Z,52.55
2023-01-08T20:51:23.613Z,52.85
2023-01-08T20:53:50.368Z,52.94
2023-01-08T20:56:17.425Z,52.83
2023-01-08T20:58:46.743Z,52.92
2023-01-08T21:01:18.233Z,53.01
2023-01-08T21:03:46.083Z,53.54
2023-01-08T21:06:16.199Z,53.13
2023-01-08T21:08:44.473Z,53.30
2023-01-08T21:11:13.825Z,53.43
2023-01-08T21:13:40.849Z,53.58
2023-01-08T21:16:15.908Z,53.46
2023-01-08T21:18:49.418Z,52.97
2023-01-08T21:21:19.855Z,52.91
2023-01-08T21:23:47.675Z,52.91
2023-01-08T21:26:15.859Z,53.08
2023-01-08T21:28:43.661Z,52.96
2023-01-08T21:31:11.311Z,53.31
2023-01-08T21:33:38.455Z,52.96
2023-01-08T21:36:08.711Z,52.72
2023-01-08T21:38:37.230Z,53.05
2023-01-08T21:41:08.252Z,52.82
2023-01-08T21:43:53.580Z,53.01
2023-01-08T21:46:23.932Z,53.36
2023-01-08T21:48:52.203Z,52.94
2023-01-08T21:51:37.639Z,53.27
2023-01-08T21:54:04.757Z,53.20
2023-01-08T21:56:31.583Z,53.42
2023-01-08T21:58:58.414Z,53.47
2023-01-08T22:01:25.347Z,53.44
2023-01-08T22:03:52.060Z,53.32
2023-01-08T22:06:18.723Z,53.47
2023-01-08T22:08:50.314Z,53.34
2023-01-08T22:11:17.133Z,53.47
2023-01-08T22:13:43.793Z,53.59
2023-01-08T22:16:10.645Z,53.73
2023-01-08T22:18:37.977Z,53.77
2023-01-08T22:21:09.561Z,54.17
2023-01-08T22:23:36.412Z,54.16
2023-01-08T22:26:10.682Z,53.94
2023-01-08T22:28:39.403Z,54.26
2023-01-08T22:31:11.239Z,54.34
2023-01-08T22:33:39.626Z,54.70
2023-01-08T22:36:09.307Z,54.41
2023-01-08T22:38:36.609Z,54.88
2023-01-08T22:41:04.014Z,54.77
2023-01-08T22:43:30.861Z,54.68
2023-01-08T22:45:59.868Z,54.95
2023-01-08T22:48:27.704Z,54.88
2023-01-08T22:50:54.769Z,54.98
2023-01-08T22:53:21.656Z,54.74
2023-01-08T22:55:48.718Z,55.08
2023-01-08T22:58:17.199Z,54.93
2023-01-08T23:00:44.640Z,55.07
2023-01-08T23:03:13.154Z,55.07
2023-01-08T23:05:40.505Z,55.03
2023-01-08T23:08:08.901Z,55.21
2023-01-08T23:10:35.741Z,55.30
2023-01-08T23:13:02.574Z,55.41
2023-01-08T23:15:29.427Z,55.22
2023-01-08T23:17:56.395Z,55.41
2023-01-08T23:20:24.853Z,55.33
2023-01-08T23:22:51.602Z,55.41
2023-01-08T23:25:18.255Z,55.32
2023-01-08T23:27:45.586Z,55.53
2023-01-08T23:30:12.656Z,55.30
2023-01-08T23:32:39.936Z,55.33
2023-01-08T23:35:06.791Z,55.48
2023-01-08T23:37:34.370Z,55.69
2023-01-08T23:40:01.117Z,55.63
2023-01-08T23:42:29.431Z,55.92
2023-01-08T23:44:56.584Z,55.95
2023-01-08T23:47:23.745Z,55.91
2023-01-08T23:49:50.510Z,56.09
2023-01-08T23:52:17.099Z,56.14
2023-01-08T23:54:43.703Z,55.96
2023-01-08T23:57:10.263Z,56.06
2023-01-08T23:59:37.108Z,55.95
